Time;durP1;ratioP1;P1;durP2;ratioP2;P2;SDS_P1;SDS_P2;PMS_P1;PMS_P2;Temp;Humidity;BMP_temperature;BMP_pressure;BME280_temperature;BME280_humidity;BME280_pressure;Samples;Min_cycle;Max_cycle;Signal;HPM_P1;HPM_P2
2023/12/24 00:02:14;;;;;;;0.00;0.00;;;25.90;57.90;;;;;;5093433;28;20190;-47
2023/12/24 00:04:44;;;;;;;0.00;0.00;;;25.90;57.90;;;;;;5093095;28;21017;-43
2023/12/24 00:07:17;;;;;;;0.00;0.00;;;25.90;57.90;;;;;;5093385;28;20563;-46
2023/12/24 00:09:48;;;;;;;0.00;0.00;;;25.90;57.90;;;;;;5093433;28;20587;-44
2023/12/24 00:12:18;;;;;;;0.00;0.00;;;26.00;57.80;;;;;;5093577;28;20198;-43
2023/12/24 00:14:50;;;;;;;0.00;0.00;;;26.00;57.80;;;;;;5093134;28;20214;-44
2023/12/24 00:17:21;;;;;;;0.00;0.00;;;26.10;57.70;;;;;;5075504;28;20653;-44
2023/12/24 00:19:51;;;;;;;0.00;0.00;;;26.10;57.60;;;;;;5093273;28;20198;-44
2023/12/24 00:22:24;;;;;;;0.00;0.00;;;26.10;57.60;;;;;;5093279;28;20198;-44
2023/12/24 00:24:55;;;;;;;0.00;0.00;;;26.10;57.50;;;;;;5092921;28;20218;-43
2023/12/24 00:27:25;;;;;;;0.00;0.00;;;26.20;57.50;;;;;;5092876;28;20676;-44
2023/12/24 00:29:56;;;;;;;0.00;0.00;;;26.20;57.50;;;;;;5092494;28;20193;-45
2023/12/24 00:32:27;;;;;;;0.00;0.00;;;26.20;57.40;;;;;;5092754;28;20206;-43
2023/12/24 00:34:57;;;;;;;0.00;0.00;;;26.20;57.20;;;;;;5092217;28;20237;-44
2023/12/24 00:37:30;;;;;;;0.00;0.00;;;26.20;57.10;;;;;;5091997;28;20194;-47
2023/12/24 00:40:01;;;;;;;0.00;0.00;;;26.20;56.90;;;;;;5092383;28;20592;-46
2023/12/24 00:42:31;;;;;;;0.00;0.00;;;26.20;56.80;;;;;;5092508;28;20205;-44
2023/12/24 00:45:02;;;;;;;0.00;0.00;;;26.30;56.70;;;;;;5092290;28;20712;-44
2023/12/24 00:47:33;;;;;;;0.00;0.00;;;26.30;56.60;;;;;;5092126;28;20190;-44
2023/12/24 00:50:03;;;;;;;0.00;0.00;;;26.30;57.10;;;;;;5092545;28;20202;-44
2023/12/24 00:52:36;;;;;;;0.00;0.00;;;26.30;56.40;;;;;;5092501;28;20201;-46
2023/12/24 00:55:07;;;;;;;0.00;0.00;;;26.40;56.40;;;;;;5092088;28;20210;-44
2023/12/24 00:57:39;;;;;;;0.00;0.00;;;26.40;56.30;;;;;;5092244;28;20190;-45
2023/12/24 01:00:13;;;;;;;0.00;0.00;;;26.50;56.40;;;;;;5092382;28;20252;-44
2023/12/24 01:02:44;;;;;;;0.00;0.00;;;26.50;56.30;;;;;;5092694;28;20193;-44
2023/12/24 01:05:15;;;;;;;0.00;0.00;;;26.50;56.30;;;;;;5091869;28;20712;-44
2023/12/24 01:07:47;;;;;;;0.00;0.00;;;26.50;56.40;;;;;;5091956;28;20208;-45
2023/12/24 01:10:18;;;;;;;0.00;0.00;;;26.60;56.50;;;;;;5092287;28;20237;-47
2023/12/24 01:12:49;;;;;;;0.00;0.00;;;26.60;56.40;;;;;;5092334;28;20571;-46
2023/12/24 01:15:20;;;;;;;0.00;0.00;;;26.60;56.40;;;;;;5092056;28;20214;-48
2023/12/24 01:17:51;;;;;;;0.00;0.00;;;26.60;56.40;;;;;;5092108;28;20607;-49
2023/12/24 01:20:21;;;;;;;0.00;0.00;;;26.70;56.40;;;;;;5091663;28;20199;-48
2023/12/24 01:22:54;;;;;;;0.00;0.00;;;26.70;56.30;;;;;;5091454;28;20201;-48
2023/12/24 01:25:25;;;;;;;0.00;0.00;;;26.70;56.30;;;;;;5092082;28;20218;-48
2023/12/24 01:27:55;;;;;;;0.00;0.00;;;26.80;56.30;;;;;;5091725;28;20194;-48
2023/12/24 01:30:26;;;;;;;0.00;0.00;;;26.80;56.30;;;;;;5090615;28;20194;-48
2023/12/24 01:32:57;;;;;;;0.00;0.00;;;26.80;56.20;;;;;;5091936;28;20205;-47
2023/12/24 01:35:27;;;;;;;0.00;0.00;;;26.90;56.20;;;;;;5092339;28;20725;-48
2023/12/24 01:38:00;;;;;;;0.00;0.00;;;26.90;56.10;;;;;;5091386;28;20194;-46
2023/12/24 01:40:31;;;;;;;0.00;0.00;;;27.00;55.90;;;;;;5091280;28;20203;-48
2023/12/24 01:43:01;;;;;;;0.00;0.00;;;27.00;55.80;;;;;;5091615;28;20200;-47
2023/12/24 01:45:34;;;;;;;0.00;0.00;;;27.10;55.90;;;;;;5091328;28;20686;-46
2023/12/24 01:48:07;;;;;;;0.00;0.00;;;27.10;56.00;;;;;;5091160;28;20565;-45
2023/12/24 01:50:39;;;;;;;0.00;0.00;;;27.10;56.00;;;;;;5091694;28;20200;-46
2023/12/24 01:53:12;;;;;;;0.00;0.00;;;27.20;56.00;;;;;;5091669;28;20198;-44
2023/12/24 01:55:43;;;;;;;0.00;0.00;;;27.20;55.90;;;;;;5091496;28;20225;-47
2023/12/24 01:58:14;;;;;;;0.00;0.00;;;27.20;55.90;;;;;;5091241;28;20222;-44
2023/12/24 02:00:45;;;;;;;0.00;0.00;;;27.20;55.90;;;;;;5091249;28;20198;-49
2023/12/24 02:03:18;;;;;;;0.00;0.00;;;27.30;56.00;;;;;;5091424;28;20194;-46
2023/12/24 02:05:50;;;;;;;0.00;0.00;;;27.30;56.10;;;;;;5091431;28;20701;-45
2023/12/24 02:08:22;;;;;;;0.00;0.00;;;27.30;56.00;;;;;;5091045;28;20201;-46
2023/12/24 02:10:53;;;;;;;0.00;0.00;;;27.40;56.00;;;;;;5090973;28;20202;-44
2023/12/24 02:13:24;;;;;;;0.00;0.00;;;27.40;56.00;;;;;;5090948;28;20198;-46
2023/12/24 02:15:59;;;;;;;0.00;0.00;;;27.40;55.90;;;;;;5090795;28;20221;-48
2023/12/24 02:18:30;;;;;;;0.00;0.00;;;27.40;55.90;;;;;;5091242;28;20248;-46
2023/12/24 02:21:05;;;;;;;0.00;0.00;;;27.50;56.00;;;;;;5091356;28;20202;-44
2023/12/24 02:23:36;;;;;;;0.00;0.00;;;27.50;56.10;;;;;;5091509;28;20198;-44
2023/12/24 02:26:14;;;;;;;0.00;0.00;;;27.60;56.10;;;;;;5091423;28;20713;-44
2023/12/24 02:28:47;;;;;;;0.00;0.00;;;27.70;56.00;;;;;;5091360;28;20731;-46
2023/12/24 02:31:20;;;;;;;0.00;0.00;;;27.70;55.90;;;;;;5090547;28;20193;-45
2023/12/24 02:33:54;;;;;;;0.00;0.00;;;27.70;55.90;;;;;;5091164;28;20197;-44
2023/12/24 02:36:28;;;;;;;0.00;0.00;;;27.80;55.90;;;;;;5091366;28;20229;-47
2023/12/24 02:39:00;;;;;;;0.00;0.00;;;27.80;55.90;;;;;;5091073;28;20638;-47
2023/12/24 02:41:31;;;;;;;0.00;0.00;;;27.80;55.60;;;;;;5091092;28;20201;-45
2023/12/24 02:44:02;;;;;;;0.00;0.00;;;27.90;55.70;;;;;;5090748;28;20195;-46
2023/12/24 02:46:33;;;;;;;0.00;0.00;;;27.90;55.70;;;;;;5091282;28;20605;-47
2023/12/24 02:49:03;;;;;;;0.00;0.00;;;27.90;55.60;;;;;;5091226;28;20202;-47
2023/12/24 02:51:36;;;;;;;0.00;0.00;;;28.00;55.70;;;;;;5091583;28;20550;-46
2023/12/24 02:54:07;;;;;;;0.00;0.00;;;28.00;55.80;;;;;;5091703;28;20634;-45
2023/12/24 02:56:38;;;;;;;0.00;0.00;;;28.00;55.80;;;;;;5091192;28;20541;-45
2023/12/24 02:59:09;;;;;;;0.00;0.00;;;28.00;55.80;;;;;;5093999;28;20701;-44
2023/12/24 03:01:39;;;;;;;0.00;0.00;;;28.00;55.80;;;;;;5094611;28;20582;-46
2023/12/24 03:04:10;;;;;;;0.00;0.00;;;28.10;55.80;;;;;;5094521;28;20201;-46
2023/12/24 03:06:43;;;;;;;0.00;0.00;;;28.10;55.90;;;;;;5094175;28;20666;-45
2023/12/24 03:09:13;;;;;;;0.00;0.00;;;28.10;55.90;;;;;;5094416;28;20198;-44
2023/12/24 03:11:44;;;;;;;0.00;0.00;;;28.10;55.70;;;;;;5094393;28;20198;-44
2023/12/24 03:14:15;;;;;;;0.00;0.00;;;28.20;55.60;;;;;;5094196;28;20677;-45
2023/12/24 03:16:45;;;;;;;0.00;0.00;;;28.20;55.40;;;;;;5093436;28;20190;-46
2023/12/24 03:19:16;;;;;;;0.00;0.00;;;28.20;55.30;;;;;;5094500;28;20591;-45
2023/12/24 03:21:49;;;;;;;0.00;0.00;;;28.20;55.20;;;;;;5094590;28;20205;-44
2023/12/24 03:24:19;;;;;;;0.00;0.00;;;28.30;55.10;;;;;;5094346;28;20198;-46
2023/12/24 03:26:50;;;;;;;0.00;0.00;;;28.30;55.00;;;;;;5094104;28;20199;-47
2023/12/24 03:29:21;;;;;;;0.00;0.00;;;28.30;54.90;;;;;;5093620;28;20665;-47
2023/12/24 03:31:51;;;;;;;0.00;0.00;;;28.30;54.90;;;;;;5093473;28;20205;-47
2023/12/24 03:34:22;;;;;;;0.00;0.00;;;28.30;54.90;;;;;;5094035;28;20202;-46
2023/12/24 03:36:55;;;;;;;0.00;0.00;;;28.30;55.30;;;;;;5093540;28;20190;-46
2023/12/24 03:39:25;;;;;;;0.00;0.00;;;28.30;54.80;;;;;;5092842;28;20217;-47
2023/12/24 03:41:56;;;;;;;0.00;0.00;;;28.30;54.90;;;;;;5093371;28;20556;-44
2023/12/24 03:44:27;;;;;;;0.00;0.00;;;28.40;55.00;;;;;;5093675;28;20194;-45
2023/12/24 03:46:57;;;;;;;0.00;0.00;;;28.40;55.00;;;;;;5093800;28;20196;-43
2023/12/24 03:49:28;;;;;;;0.00;0.00;;;28.40;55.00;;;;;;5093832;28;20198;-43
2023/12/24 03:52:01;;;;;;;0.00;0.00;;;28.40;54.90;;;;;;5093820;28;20622;-45
2023/12/24 03:54:31;;;;;;;0.00;0.00;;;28.40;54.90;;;;;;5093584;28;20759;-45
2023/12/24 03:57:02;;;;;;;0.00;0.00;;;28.40;54.80;;;;;;5093607;28;20204;-44
2023/12/24 03:59:33;;;;;;;0.00;0.00;;;28.40;54.80;;;;;;5093885;28;20689;-45
2023/12/24 04:02:03;;;;;;;0.00;0.00;;;28.40;54.70;;;;;;5093493;28;20198;-43
2023/12/24 04:04:34;;;;;;;0.00;0.00;;;28.40;54.60;;;;;;5093293;28;20553;-44
2023/12/24 04:07:07;;;;;;;0.00;0.00;;;28.40;54.60;;;;;;5093444;28;20206;-44
2023/12/24 04:09:38;;;;;;;0.00;0.00;;;28.40;54.50;;;;;;5092400;28;20194;-45
2023/12/24 04:12:09;;;;;;;0.00;0.00;;;28.40;55.20;;;;;;5093409;28;20200;-45
2023/12/24 04:14:41;;;;;;;0.00;0.00;;;28.40;54.50;;;;;;5093245;28;20210;-44
2023/12/24 04:17:11;;;;;;;0.00;0.00;;;28.40;54.50;;;;;;5093267;28;20202;-43
2023/12/24 04:19:42;;;;;;;0.00;0.00;;;28.40;54.50;;;;;;5093143;28;20225;-44
2023/12/24 04:22:14;;;;;;;0.00;0.00;;;28.40;54.50;;;;;;5092893;28;20194;-44
2023/12/24 04:24:45;;;;;;;0.00;0.00;;;28.40;54.40;;;;;;5092930;28;20224;-43
2023/12/24 04:27:16;;;;;;;0.00;0.00;;;28.40;54.40;;;;;;5092960;28;20217;-46
2023/12/24 04:29:47;;;;;;;0.00;0.00;;;28.50;54.40;;;;;;5092469;28;20190;-45
2023/12/24 04:32:19;;;;;;;0.00;0.00;;;28.40;54.30;;;;;;5092209;28;20202;-46
2023/12/24 04:34:50;;;;;;;0.00;0.00;;;28.50;54.20;;;;;;5093307;28;20232;-43
2023/12/24 04:37:22;;;;;;;0.00;0.00;;;28.50;54.10;;;;;;5092760;28;20201;-44
2023/12/24 04:39:53;;;;;;;0.00;0.00;;;28.50;54.10;;;;;;5092464;28;20221;-46
2023/12/24 04:42:24;;;;;;;0.00;0.00;;;28.50;54.10;;;;;;5092898;28;20208;-46
2023/12/24 04:44:55;;;;;;;0.00;0.00;;;28.50;54.10;;;;;;5092650;28;20218;-45
2023/12/24 04:47:25;;;;;;;0.00;0.00;;;28.50;54.00;;;;;;5092422;28;20194;-44
2023/12/24 04:49:56;;;;;;;0.00;0.00;;;28.60;54.00;;;;;;5092691;28;20190;-47
2023/12/24 04:52:29;;;;;;;0.00;0.00;;;28.60;53.90;;;;;;5092701;28;20202;-44
2023/12/24 04:54:59;;;;;;;0.00;0.00;;;28.60;53.80;;;;;;5092738;28;20214;-43
2023/12/24 04:57:30;;;;;;;0.00;0.00;;;28.60;53.80;;;;;;5092690;28;20194;-43
2023/12/24 05:00:01;;;;;;;0.00;0.00;;;28.60;53.70;;;;;;5092749;28;20591;-45
2023/12/24 05:02:31;;;;;;;0.00;0.00;;;28.70;53.70;;;;;;5092500;28;20281;-46
2023/12/24 05:05:03;;;;;;;0.00;0.00;;;28.70;53.60;;;;;;5091674;28;20210;-42
2023/12/24 05:07:38;;;;;;;0.00;0.00;;;28.70;53.60;;;;;;5091777;28;20280;-45
2023/12/24 05:10:10;;;;;;;0.00;0.00;;;28.80;53.60;;;;;;5091895;28;20198;-43
2023/12/24 05:12:40;;;;;;;0.00;0.00;;;28.80;53.50;;;;;;5092287;28;20201;-43
2023/12/24 05:15:11;;;;;;;0.00;0.00;;;28.80;53.40;;;;;;5092023;28;20220;-43
2023/12/24 05:17:42;;;;;;;0.00;0.00;;;28.90;53.40;;;;;;5091455;28;20352;-44
2023/12/24 05:20:13;;;;;;;0.00;0.00;;;28.80;53.30;;;;;;5092444;28;20230;-47
2023/12/24 05:22:46;;;;;;;0.00;0.00;;;28.90;53.20;;;;;;5092166;28;20202;-43
2023/12/24 05:25:17;;;;;;;0.00;0.00;;;28.90;53.30;;;;;;5092100;28;20218;-44
2023/12/24 05:27:47;;;;;;;0.00;0.00;;;28.90;53.30;;;;;;5091960;28;20205;-43
2023/12/24 05:30:18;;;;;;;0.00;0.00;;;28.90;53.30;;;;;;5092173;28;20198;-43
2023/12/24 05:32:49;;;;;;;0.00;0.00;;;28.90;53.30;;;;;;5091743;28;20201;-45
2023/12/24 05:35:20;;;;;;;0.00;0.00;;;28.90;53.20;;;;;;5092335;28;20226;-43
2023/12/24 05:37:52;;;;;;;0.00;0.00;;;29.00;53.40;;;;;;5091766;28;20198;-44
2023/12/24 05:40:23;;;;;;;0.00;0.00;;;29.00;53.30;;;;;;5091538;28;20214;-43
2023/12/24 05:42:54;;;;;;;0.00;0.00;;;29.00;53.20;;;;;;5091126;28;20554;-43
2023/12/24 05:45:24;;;;;;;0.00;0.00;;;29.00;53.20;;;;;;5091632;28;20218;-43
2023/12/24 05:47:55;;;;;;;0.00;0.00;;;29.00;53.10;;;;;;5091821;28;20669;-44
2023/12/24 05:50:26;;;;;;;0.00;0.00;;;29.00;53.20;;;;;;5091365;28;20201;-43
2023/12/24 05:52:59;;;;;;;0.00;0.00;;;29.00;53.00;;;;;;5091508;28;20198;-44
2023/12/24 05:55:30;;;;;;;0.00;0.00;;;29.00;53.10;;;;;;5091875;28;20209;-43
2023/12/24 05:58:00;;;;;;;0.00;0.00;;;29.00;53.10;;;;;;5091608;28;20197;-46
2023/12/24 06:00:32;;;;;;;0.00;0.00;;;29.00;53.00;;;;;;5090941;28;20229;-44
2023/12/24 06:03:03;;;;;;;0.00;0.00;;;29.00;52.90;;;;;;5091234;28;20198;-43
2023/12/24 06:05:33;;;;;;;0.00;0.00;;;29.00;53.00;;;;;;5091554;28;20218;-45
2023/12/24 06:08:06;;;;;;;0.00;0.00;;;29.10;53.10;;;;;;5091638;28;20220;-45
2023/12/24 06:10:38;;;;;;;0.00;0.00;;;29.10;53.10;;;;;;5091366;28;20538;-44
2023/12/24 06:13:08;;;;;;;0.00;0.00;;;29.10;53.10;;;;;;5091543;28;20452;-43
2023/12/24 06:15:39;;;;;;;0.00;0.00;;;29.00;53.10;;;;;;5091434;28;20225;-45
2023/12/24 06:18:10;;;;;;;0.00;0.00;;;29.10;53.10;;;;;;5091391;28;20197;-44
2023/12/24 06:20:41;;;;;;;0.00;0.00;;;29.10;53.20;;;;;;5090802;28;20233;-43
2023/12/24 06:23:14;;;;;;;0.00;0.00;;;29.00;53.10;;;;;;5090654;28;20186;-45
2023/12/24 06:25:44;;;;;;;0.00;0.00;;;29.00;53.00;;;;;;5090196;28;20701;-43
2023/12/24 06:28:15;;;;;;;0.00;0.00;;;29.00;53.70;;;;;;5091327;28;20221;-47
2023/12/24 06:30:46;;;;;;;0.00;0.00;;;29.00;53.10;;;;;;5090925;28;20201;-45
2023/12/24 06:33:17;;;;;;;0.00;0.00;;;29.00;53.10;;;;;;5092107;28;20197;-43
2023/12/24 06:35:47;;;;;;;0.00;0.00;;;29.00;53.10;;;;;;5095193;28;20232;-44
2023/12/24 06:38:20;;;;;;;0.00;0.00;;;29.00;53.10;;;;;;5094787;28;20219;-45
2023/12/24 06:40:51;;;;;;;0.00;0.00;;;29.00;53.00;;;;;;5095257;28;20569;-44
2023/12/24 06:43:22;;;;;;;0.00;0.00;;;29.00;53.00;;;;;;5095242;28;20195;-42
2023/12/24 06:45:53;;;;;;;0.00;0.00;;;29.00;53.00;;;;;;5094408;28;20584;-44
2023/12/24 06:48:23;;;;;;;0.00;0.00;;;29.00;53.60;;;;;;5094615;28;20201;-43
2023/12/24 06:50:54;;;;;;;0.00;0.00;;;29.00;53.10;;;;;;5095150;28;20569;-43
2023/12/24 06:53:27;;;;;;;0.00;0.00;;;29.00;53.00;;;;;;5095029;28;20194;-43
2023/12/24 06:55:58;;;;;;;0.00;0.00;;;29.00;53.10;;;;;;5094924;28;20218;-44
2023/12/24 06:58:28;;;;;;;0.00;0.00;;;29.00;53.80;;;;;;5094727;28;20194;-42
2023/12/24 07:00:59;;;;;;;0.00;0.00;;;29.00;53.10;;;;;;5094342;28;20244;-43
2023/12/24 07:03:30;;;;;;;0.00;0.00;;;29.00;53.00;;;;;;5094374;28;20194;-46
2023/12/24 07:06:02;;;;;;;0.00;0.00;;;29.00;53.00;;;;;;5094655;28;20221;-44
2023/12/24 07:08:35;;;;;;;0.00;0.00;;;29.00;53.00;;;;;;5094471;28;20198;-44
2023/12/24 07:11:06;;;;;;;0.00;0.00;;;29.00;52.90;;;;;;5094133;28;20195;-44
2023/12/24 07:13:36;;;;;;;0.00;0.00;;;29.00;52.90;;;;;;5094651;28;20194;-44
2023/12/24 07:16:08;;;;;;;0.00;0.00;;;29.00;52.90;;;;;;5094312;28;20301;-46
2023/12/24 07:18:39;;;;;;;0.00;0.00;;;29.00;52.80;;;;;;5094655;28;20198;-46
2023/12/24 07:21:09;;;;;;;0.00;0.00;;;28.90;52.80;;;;;;5094961;28;20229;-46
2023/12/24 07:23:43;;;;;;;0.00;0.00;;;28.90;52.80;;;;;;5093936;28;20182;-46
2023/12/24 07:26:13;;;;;;;0.00;0.00;;;28.90;52.80;;;;;;5094398;28;20218;-47
2023/12/24 07:28:44;;;;;;;0.00;0.00;;;28.90;52.80;;;;;;5094328;28;20202;-49
2023/12/24 07:31:17;;;;;;;0.00;0.00;;;28.90;52.90;;;;;;5094134;28;20198;-47
2023/12/24 07:33:48;;;;;;;0.00;0.00;;;28.90;52.90;;;;;;5093757;28;20194;-46
2023/12/24 07:36:18;;;;;;;0.00;0.00;;;28.90;52.90;;;;;;5093598;28;20218;-47
2023/12/24 07:38:51;;;;;;;0.00;0.00;;;28.80;53.00;;;;;;5093010;28;20577;-44
2023/12/24 07:41:22;;;;;;;0.00;0.00;;;28.80;52.90;;;;;;5092814;28;20221;-49
2023/12/24 07:43:53;;;;;;;0.00;0.00;;;28.80;52.90;;;;;;5092623;28;20225;-47
2023/12/24 07:46:24;;;;;;;0.00;0.00;;;28.80;52.90;;;;;;5092020;28;20576;-47
2023/12/24 07:48:54;;;;;;;0.00;0.00;;;28.80;52.80;;;;;;5092451;28;20194;-43
2023/12/24 07:51:25;;;;;;;0.00;0.00;;;28.80;52.80;;;;;;5091947;28;20220;-46
2023/12/24 07:53:58;;;;;;;0.00;0.00;;;28.80;52.80;;;;;;5092514;28;20531;-43
2023/12/24 07:56:29;;;;;;;0.00;0.00;;;28.80;52.70;;;;;;5092427;28;20214;-46
2023/12/24 07:58:59;;;;;;;0.00;0.00;;;28.80;52.70;;;;;;5092608;28;20198;-46
2023/12/24 08:01:30;;;;;;;0.00;0.00;;;28.80;52.50;;;;;;5092125;28;20226;-47
2023/12/24 08:04:01;;;;;;;0.00;0.00;;;28.70;52.50;;;;;;5092366;28;20194;-46
2023/12/24 08:06:31;;;;;;;0.00;0.00;;;28.70;52.50;;;;;;5093014;28;20576;-45
2023/12/24 08:09:04;;;;;;;0.00;0.00;;;28.70;52.40;;;;;;5092287;28;20194;-47
2023/12/24 08:11:35;;;;;;;0.00;0.00;;;28.70;52.30;;;;;;5092089;28;20189;-46
2023/12/24 08:14:06;;;;;;;0.00;0.00;;;28.70;52.30;;;;;;5092481;28;20194;-46
2023/12/24 08:16:37;;;;;;;0.00;0.00;;;28.70;52.30;;;;;;5092347;28;20517;-47
2023/12/24 08:19:07;;;;;;;0.00;0.00;;;28.60;52.30;;;;;;5092296;28;20198;-46
2023/12/24 08:21:38;;;;;;;0.00;0.00;;;28.60;52.30;;;;;;5092169;28;20230;-46
2023/12/24 08:24:11;;;;;;;0.00;0.00;;;28.60;52.30;;;;;;5091640;28;20190;-46
2023/12/24 08:26:42;;;;;;;0.00;0.00;;;28.60;52.30;;;;;;5092283;28;20209;-49
2023/12/24 08:29:12;;;;;;;0.00;0.00;;;28.60;52.30;;;;;;5092280;28;20194;-47
2023/12/24 08:31:43;;;;;;;0.00;0.00;;;28.60;52.30;;;;;;5092087;28;20198;-46
2023/12/24 08:34:14;;;;;;;0.00;0.00;;;28.60;52.40;;;;;;4977803;28;3261698;-45
2023/12/24 08:36:44;;;;;;;0.00;0.00;;;28.60;52.40;;;;;;5092831;28;20679;-47
2023/12/24 08:39:17;;;;;;;0.00;0.00;;;28.50;52.40;;;;;;5092298;28;20190;-46
2023/12/24 08:41:48;;;;;;;0.00;0.00;;;28.60;52.30;;;;;;5092165;28;20252;-45
2023/12/24 08:44:19;;;;;;;0.00;0.00;;;28.50;52.30;;;;;;5092469;28;20556;-45
2023/12/24 08:46:49;;;;;;;0.00;0.00;;;28.50;52.30;;;;;;5092147;28;20190;-47
2023/12/24 08:49:20;;;;;;;0.00;0.00;;;28.50;52.30;;;;;;5092477;28;20194;-47
2023/12/24 08:51:51;;;;;;;0.00;0.00;;;28.50;52.30;;;;;;5092524;28;20658;-46
2023/12/24 08:54:24;;;;;;;0.00;0.00;;;28.50;52.20;;;;;;5092589;28;20202;-45
2023/12/24 08:56:55;;;;;;;0.00;0.00;;;28.50;52.10;;;;;;5091911;28;20592;-43
2023/12/24 08:59:25;;;;;;;0.00;0.00;;;28.40;52.10;;;;;;5092595;28;20198;-44
2023/12/24 09:01:56;;;;;;;0.00;0.00;;;28.40;52.10;;;;;;5092213;28;20589;-43
2023/12/24 09:04:27;;;;;;;0.00;0.00;;;28.40;52.10;;;;;;5092362;28;20572;-45
2023/12/24 09:06:57;;;;;;;0.00;0.00;;;28.40;52.00;;;;;;5092093;28;20206;-45
2023/12/24 09:09:30;;;;;;;0.00;0.00;;;28.40;52.10;;;;;;5092210;28;20654;-42
2023/12/24 09:12:01;;;;;;;0.00;0.00;;;28.30;52.00;;;;;;5091747;28;20662;-43
2023/12/24 09:14:31;;;;;;;0.00;0.00;;;28.30;52.00;;;;;;5092388;28;20214;-43
2023/12/24 09:17:02;;;;;;;0.00;0.00;;;28.30;52.00;;;;;;5092190;28;20574;-48
2023/12/24 09:19:33;;;;;;;0.00;0.00;;;28.30;52.00;;;;;;5092330;28;20198;-44
2023/12/24 09:22:03;;;;;;;0.00;0.00;;;28.30;52.10;;;;;;5091913;28;20657;-45
2023/12/24 09:24:36;;;;;;;0.00;0.00;;;28.30;52.00;;;;;;5091947;28;20218;-45
2023/12/24 09:27:07;;;;;;;0.00;0.00;;;28.30;52.10;;;;;;5091689;28;20276;-42
2023/12/24 09:29:38;;;;;;;0.00;0.00;;;28.20;52.00;;;;;;5091968;28;20194;-45
2023/12/24 09:32:09;;;;;;;0.00;0.00;;;28.20;52.00;;;;;;5091921;28;20561;-45
2023/12/24 09:34:39;;;;;;;0.00;0.00;;;28.20;52.10;;;;;;5091945;28;20271;-44
2023/12/24 09:37:10;;;;;;;0.00;0.00;;;28.20;52.10;;;;;;5092434;28;20653;-44
2023/12/24 09:39:43;;;;;;;0.00;0.00;;;28.20;52.00;;;;;;5091658;28;20198;-44
2023/12/24 09:42:14;;;;;;;0.00;0.00;;;28.20;52.00;;;;;;5091252;28;20222;-46
2023/12/24 09:44:45;;;;;;;0.00;0.00;;;28.20;52.00;;;;;;5091367;28;20221;-47
2023/12/24 09:47:16;;;;;;;0.00;0.00;;;28.20;52.00;;;;;;5091248;28;20202;-45
2023/12/24 09:49:46;;;;;;;0.00;0.00;;;28.20;52.00;;;;;;5091818;28;20193;-45
2023/12/24 09:52:17;;;;;;;0.00;0.00;;;28.10;51.90;;;;;;5091961;28;20204;-43
2023/12/24 09:54:51;;;;;;;0.00;0.00;;;28.20;52.00;;;;;;5090808;28;20214;-45
2023/12/24 09:57:21;;;;;;;0.00;0.00;;;28.10;51.90;;;;;;5091389;28;20198;-43
2023/12/24 09:59:52;;;;;;;0.00;0.00;;;28.10;51.90;;;;;;5091316;28;20642;-46
2023/12/24 10:02:23;;;;;;;0.00;0.00;;;28.10;51.90;;;;;;5091347;28;20221;-43
2023/12/24 10:04:54;;;;;;;0.00;0.00;;;28.10;51.90;;;;;;5091492;28;20210;-44
2023/12/24 10:07:25;;;;;;;0.00;0.00;;;28.00;51.80;;;;;;5091464;28;20198;-46
2023/12/24 10:09:57;;;;;;;0.00;0.00;;;28.00;51.90;;;;;;5095310;28;20565;-44
2023/12/24 10:12:28;;;;;;;0.00;0.00;;;28.00;51.90;;;;;;5095443;28;20198;-44
2023/12/24 10:14:59;;;;;;;0.00;0.00;;;28.00;51.90;;;;;;5095654;28;20214;-43
2023/12/24 10:17:33;;;;;;;0.00;0.00;;;28.00;51.90;;;;;;5094937;28;20197;-43
2023/12/24 10:20:05;;;;;;;0.00;0.00;;;28.00;51.90;;;;;;5094811;28;20194;-48
2023/12/24 10:22:36;;;;;;;0.00;0.00;;;28.00;51.90;;;;;;5093937;28;20288;-43
2023/12/24 10:25:17;;;;;;;0.00;0.00;;;28.00;51.90;;;;;;5095397;28;20214;-44
2023/12/24 10:27:48;;;;;;;0.00;0.00;;;27.90;51.80;;;;;;5095730;28;20746;-45
2023/12/24 10:30:19;;;;;;;0.00;0.00;;;27.90;51.80;;;;;;5095227;28;20545;-41
2023/12/24 10:32:50;;;;;;;0.00;0.00;;;27.90;51.80;;;;;;5094858;28;20198;-44
2023/12/24 10:35:26;;;;;;;0.00;0.00;;;27.90;52.40;;;;;;5094968;28;20393;-44
2023/12/24 10:38:15;;;;;;;0.00;0.00;;;27.90;51.80;;;;;;5095760;28;20641;-45
2023/12/24 10:40:47;;;;;;;0.00;0.00;;;27.90;51.80;;;;;;5095124;28;20746;-47
2023/12/24 10:43:18;;;;;;;0.00;0.00;;;27.90;51.80;;;;;;5095297;28;20574;-45
2023/12/24 10:45:49;;;;;;;0.00;0.00;;;27.80;51.70;;;;;;5095126;28;20218;-46
2023/12/24 10:48:19;;;;;;;0.00;0.00;;;27.80;51.80;;;;;;5094672;28;20240;-45
2023/12/24 10:50:50;;;;;;;0.00;0.00;;;27.80;51.80;;;;;;5095026;28;20205;-44
2023/12/24 10:53:21;;;;;;;0.00;0.00;;;27.80;51.80;;;;;;5094977;28;20196;-43
2023/12/24 10:56:01;;;;;;;0.00;0.00;;;27.80;51.80;;;;;;5095341;28;20233;-45
2023/12/24 10:58:43;;;;;;;0.00;0.00;;;27.80;51.80;;;;;;5094857;28;20206;-45
2023/12/24 11:01:15;;;;;;;0.00;0.00;;;27.80;51.90;;;;;;5094529;28;20217;-43
2023/12/24 11:03:47;;;;;;;0.00;0.00;;;27.80;51.90;;;;;;5094677;28;20668;-43
2023/12/24 11:06:48;;;;;;;0.00;0.00;;;27.80;51.90;;;;;;5094790;28;20308;-44
2023/12/24 11:09:47;;;;;;;0.00;0.00;;;27.70;51.80;;;;;;5094670;28;20198;-46
2023/12/24 11:12:39;;;;;;;0.00;0.00;;;27.70;51.80;;;;;;5094017;28;20202;-42
2023/12/24 11:15:12;;;;;;;0.00;0.00;;;27.70;51.80;;;;;;5094360;28;20665;-46
2023/12/24 11:17:52;;;;;;;0.00;0.00;;;27.70;51.80;;;;;;5094375;28;20677;-42
2023/12/24 11:20:43;;;;;;;0.00;0.00;;;27.70;51.90;;;;;;5093727;28;20189;-42
2023/12/24 11:23:15;;;;;;;0.00;0.00;;;27.70;51.90;;;;;;5093989;28;20321;-42
2023/12/24 11:25:46;;;;;;;0.00;0.00;;;27.70;51.80;;;;;;5094001;28;20697;-44
2023/12/24 11:28:40;;;;;;;0.00;0.00;;;27.60;51.80;;;;;;5094147;28;20199;-45
2023/12/24 11:31:11;;;;;;;0.00;0.00;;;27.60;51.80;;;;;;5094380;28;20198;-43
2023/12/24 11:33:51;;;;;;;0.00;0.00;;;27.60;51.70;;;;;;5093801;28;20190;-46
2023/12/24 11:36:22;;;;;;;0.00;0.00;;;27.60;51.70;;;;;;5093697;28;20222;-45
2023/12/24 11:38:58;;;;;;;0.00;0.00;;;27.60;51.80;;;;;;5094250;28;20202;-43
2023/12/24 11:41:29;;;;;;;0.00;0.00;;;27.50;51.70;;;;;;5093987;28;20229;-41
2023/12/24 11:44:02;;;;;;;0.00;0.00;;;27.60;51.70;;;;;;5093952;28;20275;-45
2023/12/24 11:46:37;;;;;;;0.00;0.00;;;27.50;51.70;;;;;;5093350;28;20694;-45
2023/12/24 11:49:08;;;;;;;0.00;0.00;;;27.50;51.70;;;;;;5093769;28;20194;-44
2023/12/24 11:51:39;;;;;;;0.00;0.00;;;27.50;51.70;;;;;;5093980;28;20565;-46
2023/12/24 11:54:13;;;;;;;0.00;0.00;;;27.50;51.80;;;;;;5093695;28;20202;-42
2023/12/24 11:56:43;;;;;;;0.00;0.00;;;27.40;51.70;;;;;;5093981;28;20236;-44
2023/12/24 11:59:17;;;;;;;0.00;0.00;;;27.50;51.80;;;;;;5093494;28;20202;-45
2023/12/24 12:01:48;;;;;;;0.00;0.00;;;27.40;51.70;;;;;;5091791;28;20292;-42
2023/12/24 12:04:23;;;;;;;0.00;0.00;;;27.40;51.70;;;;;;5093349;28;20194;-44
2023/12/24 12:06:54;;;;;;;0.00;0.00;;;27.40;51.70;;;;;;5093534;28;20193;-42
2023/12/24 12:09:25;;;;;;;0.00;0.00;;;27.40;51.70;;;;;;5093428;28;20191;-41
2023/12/24 12:11:55;;;;;;;0.00;0.00;;;27.40;51.70;;;;;;5093150;28;20190;-45
2023/12/24 12:14:28;;;;;;;0.00;0.00;;;27.40;51.60;;;;;;5093290;28;20201;-44
2023/12/24 12:16:59;;;;;;;0.00;0.00;;;27.40;51.70;;;;;;5093094;28;20194;-43
2023/12/24 12:19:29;;;;;;;0.00;0.00;;;27.40;51.70;;;;;;5093247;28;20269;-44
2023/12/24 12:22:00;;;;;;;0.00;0.00;;;27.40;51.70;;;;;;5092659;28;20220;-42
2023/12/24 12:24:31;;;;;;;0.00;0.00;;;27.30;51.60;;;;;;5093217;28;20218;-44
2023/12/24 12:27:04;;;;;;;0.00;0.00;;;27.30;51.60;;;;;;5093345;28;20217;-46
2023/12/24 12:29:37;;;;;;;0.00;0.00;;;27.30;51.70;;;;;;5093047;28;20192;-42
2023/12/24 12:32:08;;;;;;;0.00;0.00;;;27.30;51.70;;;;;;5092294;28;20194;-43
2023/12/24 12:34:41;;;;;;;0.00;0.00;;;27.30;51.70;;;;;;5092859;28;20214;-42
2023/12/24 12:37:18;;;;;;;0.00;0.00;;;27.30;51.70;;;;;;5092953;28;20202;-43
2023/12/24 12:39:49;;;;;;;0.00;0.00;;;27.30;51.70;;;;;;5092955;28;20216;-42
2023/12/24 12:42:20;;;;;;;0.00;0.00;;;27.20;52.30;;;;;;5092886;28;20300;-43
2023/12/24 12:44:52;;;;;;;0.00;0.00;;;27.20;51.70;;;;;;5092772;28;20682;-43
2023/12/24 12:47:23;;;;;;;0.00;0.00;;;27.20;51.70;;;;;;5092450;28;20213;-44
2023/12/24 12:49:54;;;;;;;0.00;0.00;;;27.20;51.70;;;;;;5092300;28;20205;-43
2023/12/24 12:52:25;;;;;;;0.00;0.00;;;27.20;51.70;;;;;;5092286;28;20190;-43
2023/12/24 12:55:04;;;;;;;0.00;0.00;;;27.20;51.70;;;;;;5092364;28;20215;-43
2023/12/24 12:57:36;;;;;;;0.00;0.00;;;27.20;51.70;;;;;;5092252;28;20190;-42
2023/12/24 13:00:11;;;;;;;0.00;0.00;;;27.10;51.60;;;;;;5092454;28;20217;-48
2023/12/24 13:02:42;;;;;;;0.00;0.00;;;27.10;51.60;;;;;;5091965;28;20645;-47
2023/12/24 13:05:28;;;;;;;0.00;0.00;;;27.10;51.60;;;;;;5091800;28;20210;-46
2023/12/24 13:07:59;;;;;;;0.00;0.00;;;27.10;51.50;;;;;;5091634;28;20205;-47
2023/12/24 13:10:34;;;;;;;0.00;0.00;;;27.10;51.60;;;;;;5092567;28;20201;-50
2023/12/24 13:13:13;;;;;;;0.00;0.00;;;27.10;51.60;;;;;;5092211;28;20209;-48